sensor_id;sensor_type;location;lat;lon;timestamp;P1;durP1;ratioP1;P2;durP2;ratioP2
1479;SDS011;732;51.698;4.886;2023-07-20T00:01:47;22.47;;;13.60;;
1479;SDS011;732;51.698;4.886;2023-07-20T00:04:16;21.87;;;12.90;;
1479;SDS011;732;51.698;4.886;2023-07-20T00:06:44;24.30;;;13.37;;
1479;SDS011;732;51.698;4.886;2023-07-20T00:09:14;19.97;;;12.37;;
1479;SDS011;732;51.698;4.886;2023-07-20T00:11:47;18.70;;;12.57;;
1479;SDS011;732;51.698;4.886;2023-07-20T00:14:17;19.80;;;12.60;;
1479;SDS011;732;51.698;4.886;2023-07-20T00:16:46;20.17;;;15.07;;
1479;SDS011;732;51.698;4.886;2023-07-20T00:19:15;20.77;;;14.67;;
1479;SDS011;732;51.698;4.886;2023-07-20T00:21:44;20.70;;;13.60;;
1479;SDS011;732;51.698;4.886;2023-07-20T00:24:14;20.53;;;15.27;;
1479;SDS011;732;51.698;4.886;2023-07-20T00:26:42;23.10;;;15.07;;
1479;SDS011;732;51.698;4.886;2023-07-20T00:29:12;20.07;;;15.87;;
1479;SDS011;732;51.698;4.886;2023-07-20T00:31:40;16.40;;;12.50;;
1479;SDS011;732;51.698;4.886;2023-07-20T00:34:10;20.17;;;14.27;;
1479;SDS011;732;51.698;4.886;2023-07-20T00:36:39;14.57;;;11.20;;
1479;SDS011;732;51.698;4.886;2023-07-20T00:39:08;16.17;;;11.13;;
1479;SDS011;732;51.698;4.886;2023-07-20T00:41:38;18.57;;;12.40;;
1479;SDS011;732;51.698;4.886;2023-07-20T00:44:06;18.30;;;12.90;;
1479;SDS011;732;51.698;4.886;2023-07-20T00:46:34;19.17;;;13.53;;
1479;SDS011;732;51.698;4.886;2023-07-20T00:49:03;16.67;;;12.50;;
1479;SDS011;732;51.698;4.886;2023-07-20T00:51:32;19.20;;;14.47;;
1479;SDS011;732;51.698;4.886;2023-07-20T00:54:01;22.33;;;14.83;;
1479;SDS011;732;51.698;4.886;2023-07-20T00:56:30;20.60;;;15.30;;
1479;SDS011;732;51.698;4.886;2023-07-20T00:59:00;28.00;;;15.77;;
1479;SDS011;732;51.698;4.886;2023-07-20T01:01:28;22.60;;;15.70;;
1479;SDS011;732;51.698;4.886;2023-07-20T01:03:57;24.13;;;16.00;;
1479;SDS011;732;51.698;4.886;2023-07-20T01:06:28;21.50;;;16.20;;
1479;SDS011;732;51.698;4.886;2023-07-20T01:09:07;25.73;;;16.20;;
1479;SDS011;732;51.698;4.886;2023-07-20T01:11:49;28.13;;;17.83;;
1479;SDS011;732;51.698;4.886;2023-07-20T01:14:28;27.30;;;17.80;;
1479;SDS011;732;51.698;4.886;2023-07-20T01:16:59;27.00;;;18.30;;
1479;SDS011;732;51.698;4.886;2023-07-20T01:19:27;27.03;;;16.67;;
1479;SDS011;732;51.698;4.886;2023-07-20T01:21:59;28.90;;;19.50;;
1479;SDS011;732;51.698;4.886;2023-07-20T01:24:40;29.00;;;19.70;;
1479;SDS011;732;51.698;4.886;2023-07-20T01:27:42;26.87;;;19.50;;
1479;SDS011;732;51.698;4.886;2023-07-20T01:30:38;36.47;;;19.80;;
1479;SDS011;732;51.698;4.886;2023-07-20T01:33:19;27.27;;;18.50;;
1479;SDS011;732;51.698;4.886;2023-07-20T01:35:52;33.90;;;21.73;;
1479;SDS011;732;51.698;4.886;2023-07-20T01:38:23;31.93;;;20.77;;
1479;SDS011;732;51.698;4.886;2023-07-20T01:40:52;29.37;;;19.33;;
1479;SDS011;732;51.698;4.886;2023-07-20T01:43:20;38.13;;;23.30;;
1479;SDS011;732;51.698;4.886;2023-07-20T01:45:49;31.33;;;21.20;;
1479;SDS011;732;51.698;4.886;2023-07-20T01:48:18;34.93;;;22.83;;
1479;SDS011;732;51.698;4.886;2023-07-20T01:50:47;34.90;;;22.73;;
1479;SDS011;732;51.698;4.886;2023-07-20T01:53:16;35.73;;;22.40;;
1479;SDS011;732;51.698;4.886;2023-07-20T01:55:47;31.60;;;21.43;;
1479;SDS011;732;51.698;4.886;2023-07-20T01:58:15;37.37;;;22.90;;
1479;SDS011;732;51.698;4.886;2023-07-20T02:00:44;32.33;;;22.33;;
1479;SDS011;732;51.698;4.886;2023-07-20T02:03:12;34.03;;;24.03;;
1479;SDS011;732;51.698;4.886;2023-07-20T02:05:43;32.47;;;20.97;;
1479;SDS011;732;51.698;4.886;2023-07-20T02:08:16;35.10;;;22.70;;
1479;SDS011;732;51.698;4.886;2023-07-20T02:10:45;33.03;;;21.60;;
1479;SDS011;732;51.698;4.886;2023-07-20T02:13:15;34.70;;;21.60;;
1479;SDS011;732;51.698;4.886;2023-07-20T02:15:44;26.73;;;18.93;;
1479;SDS011;732;51.698;4.886;2023-07-20T02:18:13;23.77;;;17.17;;
1479;SDS011;732;51.698;4.886;2023-07-20T02:20:44;23.03;;;16.33;;
1479;SDS011;732;51.698;4.886;2023-07-20T02:23:12;19.93;;;13.90;;
1479;SDS011;732;51.698;4.886;2023-07-20T02:25:41;19.53;;;14.50;;
1479;SDS011;732;51.698;4.886;2023-07-20T02:28:12;19.50;;;14.30;;
1479;SDS011;732;51.698;4.886;2023-07-20T02:30:41;17.90;;;13.17;;
1479;SDS011;732;51.698;4.886;2023-07-20T02:33:09;20.63;;;14.30;;
1479;SDS011;732;51.698;4.886;2023-07-20T02:35:38;17.27;;;12.30;;
1479;SDS011;732;51.698;4.886;2023-07-20T02:38:09;17.00;;;13.60;;
1479;SDS011;732;51.698;4.886;2023-07-20T02:40:37;19.77;;;14.07;;
1479;SDS011;732;51.698;4.886;2023-07-20T02:43:07;19.77;;;12.77;;
1479;SDS011;732;51.698;4.886;2023-07-20T02:45:39;19.57;;;13.90;;
1479;SDS011;732;51.698;4.886;2023-07-20T02:48:09;16.77;;;13.30;;
1479;SDS011;732;51.698;4.886;2023-07-20T02:50:39;22.90;;;15.20;;
1479;SDS011;732;51.698;4.886;2023-07-20T02:53:09;18.77;;;14.37;;
1479;SDS011;732;51.698;4.886;2023-07-20T02:55:37;19.47;;;14.23;;
1479;SDS011;732;51.698;4.886;2023-07-20T02:58:06;20.90;;;15.10;;
1479;SDS011;732;51.698;4.886;2023-07-20T03:00:34;20.83;;;14.27;;
1479;SDS011;732;51.698;4.886;2023-07-20T03:03:02;19.80;;;14.60;;
1479;SDS011;732;51.698;4.886;2023-07-20T03:05:36;21.37;;;14.97;;
1479;SDS011;732;51.698;4.886;2023-07-20T03:08:09;21.80;;;14.47;;
1479;SDS011;732;51.698;4.886;2023-07-20T03:10:40;19.97;;;13.13;;
1479;SDS011;732;51.698;4.886;2023-07-20T03:13:09;18.97;;;13.00;;
1479;SDS011;732;51.698;4.886;2023-07-20T03:15:37;17.47;;;12.77;;
1479;SDS011;732;51.698;4.886;2023-07-20T03:18:05;18.07;;;13.13;;
1479;SDS011;732;51.698;4.886;2023-07-20T03:20:35;13.97;;;11.10;;
1479;SDS011;732;51.698;4.886;2023-07-20T03:23:04;16.03;;;12.17;;
1479;SDS011;732;51.698;4.886;2023-07-20T03:25:34;14.33;;;11.37;;
1479;SDS011;732;51.698;4.886;2023-07-20T03:28:04;19.90;;;13.20;;
1479;SDS011;732;51.698;4.886;2023-07-20T03:30:32;18.00;;;12.97;;
1479;SDS011;732;51.698;4.886;2023-07-20T03:33:02;19.90;;;13.53;;
1479;SDS011;732;51.698;4.886;2023-07-20T03:35:31;18.67;;;13.27;;
1479;SDS011;732;51.698;4.886;2023-07-20T03:37:59;18.73;;;14.20;;
1479;SDS011;732;51.698;4.886;2023-07-20T03:40:28;19.77;;;13.93;;
1479;SDS011;732;51.698;4.886;2023-07-20T03:42:56;23.27;;;15.53;;
1479;SDS011;732;51.698;4.886;2023-07-20T03:45:26;19.97;;;14.33;;
1479;SDS011;732;51.698;4.886;2023-07-20T03:47:54;19.00;;;13.90;;
1479;SDS011;732;51.698;4.886;2023-07-20T03:50:23;20.53;;;13.73;;
1479;SDS011;732;51.698;4.886;2023-07-20T03:52:52;19.53;;;14.83;;
1479;SDS011;732;51.698;4.886;2023-07-20T03:55:20;18.10;;;13.13;;
1479;SDS011;732;51.698;4.886;2023-07-20T03:57:49;19.57;;;14.53;;
1479;SDS011;732;51.698;4.886;2023-07-20T04:00:20;25.00;;;15.13;;
1479;SDS011;732;51.698;4.886;2023-07-20T04:02:49;19.20;;;13.50;;
1479;SDS011;732;51.698;4.886;2023-07-20T04:05:17;21.80;;;13.70;;
1479;SDS011;732;51.698;4.886;2023-07-20T04:07:46;20.23;;;14.10;;
1479;SDS011;732;51.698;4.886;2023-07-20T04:10:14;18.50;;;12.77;;
1479;SDS011;732;51.698;4.886;2023-07-20T04:12:43;18.33;;;13.00;;
1479;SDS011;732;51.698;4.886;2023-07-20T04:15:13;24.20;;;13.77;;
1479;SDS011;732;51.698;4.886;2023-07-20T04:17:43;19.20;;;13.00;;
1479;SDS011;732;51.698;4.886;2023-07-20T04:20:13;18.13;;;12.37;;
1479;SDS011;732;51.698;4.886;2023-07-20T04:22:43;19.67;;;12.83;;
1479;SDS011;732;51.698;4.886;2023-07-20T04:25:13;16.50;;;12.53;;
1479;SDS011;732;51.698;4.886;2023-07-20T04:27:42;20.20;;;11.67;;
1479;SDS011;732;51.698;4.886;2023-07-20T04:30:11;16.83;;;11.90;;
1479;SDS011;732;51.698;4.886;2023-07-20T04:32:43;17.83;;;11.17;;
1479;SDS011;732;51.698;4.886;2023-07-20T04:35:16;19.13;;;11.43;;
1479;SDS011;732;51.698;4.886;2023-07-20T04:38:07;20.63;;;13.50;;
1479;SDS011;732;51.698;4.886;2023-07-20T04:40:36;20.43;;;14.00;;
1479;SDS011;732;51.698;4.886;2023-07-20T04:43:05;18.60;;;13.40;;
1479;SDS011;732;51.698;4.886;2023-07-20T04:45:33;17.30;;;12.13;;
1479;SDS011;732;51.698;4.886;2023-07-20T04:48:04;19.80;;;12.97;;
1479;SDS011;732;51.698;4.886;2023-07-20T04:50:36;19.83;;;11.53;;
1479;SDS011;732;51.698;4.886;2023-07-20T04:53:05;22.60;;;11.00;;
1479;SDS011;732;51.698;4.886;2023-07-20T04:55:34;14.53;;;9.80;;
1479;SDS011;732;51.698;4.886;2023-07-20T04:58:03;12.60;;;8.70;;
1479;SDS011;732;51.698;4.886;2023-07-20T05:00:34;12.77;;;7.97;;
1479;SDS011;732;51.698;4.886;2023-07-20T05:03:04;14.27;;;7.80;;
1479;SDS011;732;51.698;4.886;2023-07-20T05:05:33;11.10;;;7.20;;
1479;SDS011;732;51.698;4.886;2023-07-20T05:08:03;11.97;;;7.33;;
1479;SDS011;732;51.698;4.886;2023-07-20T05:10:33;10.63;;;5.50;;
1479;SDS011;732;51.698;4.886;2023-07-20T05:13:01;6.97;;;5.10;;
1479;SDS011;732;51.698;4.886;2023-07-20T05:15:29;6.80;;;4.77;;
1479;SDS011;732;51.698;4.886;2023-07-20T05:18:03;5.93;;;4.80;;
1479;SDS011;732;51.698;4.886;2023-07-20T05:20:32;9.43;;;4.80;;
1479;SDS011;732;51.698;4.886;2023-07-20T05:23:01;6.73;;;4.17;;
1479;SDS011;732;51.698;4.886;2023-07-20T05:25:32;6.30;;;4.90;;
1479;SDS011;732;51.698;4.886;2023-07-20T05:28:00;8.50;;;5.00;;
1479;SDS011;732;51.698;4.886;2023-07-20T05:30:29;7.90;;;5.23;;
1479;SDS011;732;51.698;4.886;2023-07-20T05:32:57;10.00;;;4.47;;
1479;SDS011;732;51.698;4.886;2023-07-20T05:35:27;7.67;;;4.63;;
1479;SDS011;732;51.698;4.886;2023-07-20T05:37:56;6.70;;;4.50;;
1479;SDS011;732;51.698;4.886;2023-07-20T05:40:24;6.27;;;4.87;;
1479;SDS011;732;51.698;4.886;2023-07-20T05:42:52;7.43;;;4.73;;
1479;SDS011;732;51.698;4.886;2023-07-20T05:45:23;5.97;;;4.33;;
1479;SDS011;732;51.698;4.886;2023-07-20T05:47:52;7.27;;;4.10;;
1479;SDS011;732;51.698;4.886;2023-07-20T05:50:21;9.13;;;4.83;;
1479;SDS011;732;51.698;4.886;2023-07-20T05:52:52;5.30;;;3.60;;
1479;SDS011;732;51.698;4.886;2023-07-20T05:55:21;6.20;;;4.20;;
1479;SDS011;732;51.698;4.886;2023-07-20T05:57:50;5.07;;;3.20;;
1479;SDS011;732;51.698;4.886;2023-07-20T06:00:19;5.43;;;3.70;;
1479;SDS011;732;51.698;4.886;2023-07-20T06:02:52;6.67;;;4.53;;
1479;SDS011;732;51.698;4.886;2023-07-20T06:05:22;9.63;;;3.83;;
1479;SDS011;732;51.698;4.886;2023-07-20T06:07:56;6.23;;;3.80;;
1479;SDS011;732;51.698;4.886;2023-07-20T06:10:28;4.73;;;3.70;;
1479;SDS011;732;51.698;4.886;2023-07-20T06:12:56;7.50;;;4.00;;
1479;SDS011;732;51.698;4.886;2023-07-20T06:15:25;6.27;;;3.77;;
1479;SDS011;732;51.698;4.886;2023-07-20T06:17:55;5.50;;;3.77;;
1479;SDS011;732;51.698;4.886;2023-07-20T06:20:24;5.50;;;3.83;;
1479;SDS011;732;51.698;4.886;2023-07-20T06:22:53;4.97;;;2.47;;
1479;SDS011;732;51.698;4.886;2023-07-20T06:25:23;5.50;;;2.80;;
1479;SDS011;732;51.698;4.886;2023-07-20T06:27:51;4.17;;;2.47;;
1479;SDS011;732;51.698;4.886;2023-07-20T06:30:20;5.77;;;2.80;;
1479;SDS011;732;51.698;4.886;2023-07-20T06:32:49;4.43;;;2.90;;
1479;SDS011;732;51.698;4.886;2023-07-20T06:35:18;6.03;;;3.43;;
1479;SDS011;732;51.698;4.886;2023-07-20T06:37:46;6.20;;;2.80;;
1479;SDS011;732;51.698;4.886;2023-07-20T06:40:14;3.97;;;2.13;;
1479;SDS011;732;51.698;4.886;2023-07-20T06:42:48;3.70;;;2.00;;
1479;SDS011;732;51.698;4.886;2023-07-20T06:45:20;5.27;;;2.70;;
1479;SDS011;732;51.698;4.886;2023-07-20T06:47:49;4.67;;;2.43;;
1479;SDS011;732;51.698;4.886;2023-07-20T06:50:17;3.70;;;1.80;;
1479;SDS011;732;51.698;4.886;2023-07-20T06:52:46;2.83;;;1.90;;
1479;SDS011;732;51.698;4.886;2023-07-20T06:55:15;9.60;;;2.17;;
1479;SDS011;732;51.698;4.886;2023-07-20T06:57:50;3.80;;;2.40;;
1479;SDS011;732;51.698;4.886;2023-07-20T07:00:24;3.47;;;2.40;;
1479;SDS011;732;51.698;4.886;2023-07-20T07:02:52;5.33;;;2.97;;
1479;SDS011;732;51.698;4.886;2023-07-20T07:05:21;4.53;;;2.20;;
1479;SDS011;732;51.698;4.886;2023-07-20T07:07:49;4.40;;;2.20;;
1479;SDS011;732;51.698;4.886;2023-07-20T07:10:17;3.20;;;1.90;;
1479;SDS011;732;51.698;4.886;2023-07-20T07:12:46;6.63;;;2.10;;
1479;SDS011;732;51.698;4.886;2023-07-20T07:15:17;4.73;;;2.30;;
1479;SDS011;732;51.698;4.886;2023-07-20T07:17:45;3.50;;;2.20;;
1479;SDS011;732;51.698;4.886;2023-07-20T07:20:14;3.23;;;1.97;;
1479;SDS011;732;51.698;4.886;2023-07-20T07:22:47;4.10;;;1.90;;
1479;SDS011;732;51.698;4.886;2023-07-20T07:25:16;3.47;;;2.03;;
1479;SDS011;732;51.698;4.886;2023-07-20T07:27:49;3.77;;;2.27;;
1479;SDS011;732;51.698;4.886;2023-07-20T07:30:20;3.00;;;1.70;;
1479;SDS011;732;51.698;4.886;2023-07-20T07:32:49;3.83;;;2.00;;
1479;SDS011;732;51.698;4.886;2023-07-20T07:35:18;5.43;;;1.60;;
1479;SDS011;732;51.698;4.886;2023-07-20T07:37:47;2.73;;;1.70;;
1479;SDS011;732;51.698;4.886;2023-07-20T07:40:18;3.40;;;1.80;;
1479;SDS011;732;51.698;4.886;2023-07-20T07:42:46;7.23;;;2.53;;
1479;SDS011;732;51.698;4.886;2023-07-20T07:45:15;4.33;;;2.60;;
1479;SDS011;732;51.698;4.886;2023-07-20T07:47:45;3.43;;;1.80;;
1479;SDS011;732;51.698;4.886;2023-07-20T07:50:13;3.73;;;2.10;;
1479;SDS011;732;51.698;4.886;2023-07-20T07:52:42;6.60;;;2.20;;
1479;SDS011;732;51.698;4.886;2023-07-20T07:55:10;5.23;;;2.17;;
1479;SDS011;732;51.698;4.886;2023-07-20T07:57:38;4.80;;;1.83;;
1479;SDS011;732;51.698;4.886;2023-07-20T08:00:07;3.17;;;1.60;;
1479;SDS011;732;51.698;4.886;2023-07-20T08:02:41;2.67;;;1.50;;
1479;SDS011;732;51.698;4.886;2023-07-20T08:05:11;2.70;;;1.63;;
1479;SDS011;732;51.698;4.886;2023-07-20T08:07:40;3.33;;;1.93;;
1479;SDS011;732;51.698;4.886;2023-07-20T08:10:09;5.13;;;1.80;;
1479;SDS011;732;51.698;4.886;2023-07-20T08:12:37;4.83;;;1.77;;
1479;SDS011;732;51.698;4.886;2023-07-20T08:15:07;3.40;;;1.93;;
1479;SDS011;732;51.698;4.886;2023-07-20T08:17:37;3.60;;;1.87;;
1479;SDS011;732;51.698;4.886;2023-07-20T08:20:06;3.60;;;1.70;;
1479;SDS011;732;51.698;4.886;2023-07-20T08:22:40;3.90;;;1.60;;
1479;SDS011;732;51.698;4.886;2023-07-20T08:25:08;4.00;;;1.90;;
1479;SDS011;732;51.698;4.886;2023-07-20T08:27:37;2.80;;;1.50;;
1479;SDS011;732;51.698;4.886;2023-07-20T08:30:07;3.30;;;1.50;;
1479;SDS011;732;51.698;4.886;2023-07-20T08:32:37;3.97;;;1.30;;
1479;SDS011;732;51.698;4.886;2023-07-20T08:35:07;4.40;;;1.50;;
1479;SDS011;732;51.698;4.886;2023-07-20T08:37:36;4.80;;;1.80;;
1479;SDS011;732;51.698;4.886;2023-07-20T08:40:07;4.00;;;1.40;;
1479;SDS011;732;51.698;4.886;2023-07-20T08:42:37;3.13;;;1.60;;
1479;SDS011;732;51.698;4.886;2023-07-20T08:45:06;5.63;;;1.60;;
1479;SDS011;732;51.698;4.886;2023-07-20T08:47:36;4.90;;;2.00;;
1479;SDS011;732;51.698;4.886;2023-07-20T08:50:06;4.60;;;1.43;;
1479;SDS011;732;51.698;4.886;2023-07-20T08:52:37;6.50;;;1.90;;
1479;SDS011;732;51.698;4.886;2023-07-20T08:55:07;5.37;;;1.60;;
1479;SDS011;732;51.698;4.886;2023-07-20T08:57:36;3.73;;;1.40;;
1479;SDS011;732;51.698;4.886;2023-07-20T09:00:09;4.77;;;1.47;;
1479;SDS011;732;51.698;4.886;2023-07-20T09:02:39;5.43;;;1.70;;
1479;SDS011;732;51.698;4.886;2023-07-20T09:05:10;4.77;;;1.70;;
1479;SDS011;732;51.698;4.886;2023-07-20T09:07:40;3.83;;;1.80;;
1479;SDS011;732;51.698;4.886;2023-07-20T09:10:10;5.47;;;1.67;;
1479;SDS011;732;51.698;4.886;2023-07-20T09:12:40;4.77;;;1.50;;
1479;SDS011;732;51.698;4.886;2023-07-20T09:15:10;5.77;;;1.80;;
1479;SDS011;732;51.698;4.886;2023-07-20T09:17:39;3.93;;;1.80;;
1479;SDS011;732;51.698;4.886;2023-07-20T09:20:14;5.00;;;2.00;;
1479;SDS011;732;51.698;4.886;2023-07-20T09:22:48;4.30;;;1.80;;
1479;SDS011;732;51.698;4.886;2023-07-20T09:25:20;5.03;;;1.30;;
1479;SDS011;732;51.698;4.886;2023-07-20T09:27:55;6.63;;;1.90;;
1479;SDS011;732;51.698;4.886;2023-07-20T09:30:25;8.93;;;4.40;;
1479;SDS011;732;51.698;4.886;2023-07-20T09:32:56;8.03;;;4.83;;
1479;SDS011;732;51.698;4.886;2023-07-20T09:35:25;7.00;;;6.13;;
1479;SDS011;732;51.698;4.886;2023-07-20T09:38:07;5.63;;;4.70;;
1479;SDS011;732;51.698;4.886;2023-07-20T09:40:40;6.13;;;1.87;;
1479;SDS011;732;51.698;4.886;2023-07-20T09:43:15;6.07;;;2.97;;
1479;SDS011;732;51.698;4.886;2023-07-20T09:45:46;42.63;;;39.50;;
1479;SDS011;732;51.698;4.886;2023-07-20T09:48:18;6.00;;;5.00;;
1479;SDS011;732;51.698;4.886;2023-07-20T09:50:54;6.67;;;3.47;;
1479;SDS011;732;51.698;4.886;2023-07-20T09:53:24;6.07;;;2.00;;
1479;SDS011;732;51.698;4.886;2023-07-20T09:55:55;7.50;;;4.00;;
1479;SDS011;732;51.698;4.886;2023-07-20T09:58:24;16.80;;;15.33;;
1479;SDS011;732;51.698;4.886;2023-07-20T10:00:54;76.70;;;70.83;;
1479;SDS011;732;51.698;4.886;2023-07-20T10:03:29;61.37;;;56.97;;
1479;SDS011;732;51.698;4.886;2023-07-20T10:06:02;308.27;;;284.70;;
1479;SDS011;732;51.698;4.886;2023-07-20T10:08:38;752.83;;;679.10;;
1479;SDS011;732;51.698;4.886;2023-07-20T10:11:12;1952.87;;;951.23;;
1479;SDS011;732;51.698;4.886;2023-07-20T10:13:44;1999.90;;;999.90;;
1479;SDS011;732;51.698;4.886;2023-07-20T10:16:19;1999.90;;;957.60;;
1479;SDS011;732;51.698;4.886;2023-07-20T10:18:59;1999.90;;;948.63;;
1479;SDS011;732;51.698;4.886;2023-07-20T10:21:45;1999.90;;;718.70;;
1479;SDS011;732;51.698;4.886;2023-07-20T10:24:24;1632.03;;;411.10;;
1479;SDS011;732;51.698;4.886;2023-07-20T10:26:55;1202.63;;;898.40;;
1479;SDS011;732;51.698;4.886;2023-07-20T10:29:23;1773.33;;;926.73;;
1479;SDS011;732;51.698;4.886;2023-07-20T10:31:56;1381.93;;;846.23;;
1479;SDS011;732;51.698;4.886;2023-07-20T10:34:24;956.27;;;865.50;;
1479;SDS011;732;51.698;4.886;2023-07-20T10:36:53;1801.33;;;999.90;;
1479;SDS011;732;51.698;4.886;2023-07-20T10:39:22;1971.93;;;989.03;;
1479;SDS011;732;51.698;4.886;2023-07-20T10:42:00;1999.90;;;999.90;;
1479;SDS011;732;51.698;4.886;2023-07-20T10:44:30;1999.90;;;999.90;;
1479;SDS011;732;51.698;4.886;2023-07-20T10:46:59;1999.90;;;999.90;;
1479;SDS011;732;51.698;4.886;2023-07-20T10:49:29;1999.90;;;999.90;;
1479;SDS011;732;51.698;4.886;2023-07-20T10:52:03;1999.90;;;999.90;;
1479;SDS011;732;51.698;4.886;2023-07-20T10:54:34;1999.90;;;999.90;;
1479;SDS011;732;51.698;4.886;2023-07-20T10:57:24;1999.90;;;999.90;;
1479;SDS011;732;51.698;4.886;2023-07-20T11:00:07;1999.90;;;999.90;;
1479;SDS011;732;51.698;4.886;2023-07-20T11:02:42;1999.90;;;999.90;;
1479;SDS011;732;51.698;4.886;2023-07-20T11:05:35;1476.83;;;999.90;;
1479;SDS011;732;51.698;4.886;2023-07-20T11:08:09;1052.37;;;965.10;;
1479;SDS011;732;51.698;4.886;2023-07-20T11:10:40;687.87;;;639.93;;
1479;SDS011;732;51.698;4.886;2023-07-20T11:13:23;557.27;;;522.37;;
1479;SDS011;732;51.698;4.886;2023-07-20T11:16:03;344.80;;;322.93;;
1479;SDS011;732;51.698;4.886;2023-07-20T11:18:35;374.87;;;350.97;;
1479;SDS011;732;51.698;4.886;2023-07-20T11:21:09;440.30;;;410.03;;
1479;SDS011;732;51.698;4.886;2023-07-20T11:23:39;331.17;;;309.63;;
1479;SDS011;732;51.698;4.886;2023-07-20T11:26:14;345.23;;;323.70;;
1479;SDS011;732;51.698;4.886;2023-07-20T11:28:47;245.27;;;228.90;;
1479;SDS011;732;51.698;4.886;2023-07-20T11:31:18;52.77;;;48.60;;
1479;SDS011;732;51.698;4.886;2023-07-20T11:33:47;86.23;;;80.00;;
1479;SDS011;732;51.698;4.886;2023-07-20T11:36:15;306.60;;;285.37;;
1479;SDS011;732;51.698;4.886;2023-07-20T11:38:46;543.83;;;503.27;;
1479;SDS011;732;51.698;4.886;2023-07-20T11:41:15;559.03;;;518.67;;
1479;SDS011;732;51.698;4.886;2023-07-20T11:43:45;602.43;;;559.47;;
1479;SDS011;732;51.698;4.886;2023-07-20T11:46:14;827.93;;;762.60;;
1479;SDS011;732;51.698;4.886;2023-07-20T11:48:43;654.23;;;606.87;;
1479;SDS011;732;51.698;4.886;2023-07-20T11:51:14;596.27;;;552.20;;
1479;SDS011;732;51.698;4.886;2023-07-20T11:53:44;674.87;;;625.90;;
1479;SDS011;732;51.698;4.886;2023-07-20T11:56:14;707.70;;;655.23;;
1479;SDS011;732;51.698;4.886;2023-07-20T11:58:44;756.00;;;696.17;;
1479;SDS011;732;51.698;4.886;2023-07-20T12:01:13;797.03;;;729.30;;
1479;SDS011;732;51.698;4.886;2023-07-20T12:03:42;749.67;;;691.53;;
1479;SDS011;732;51.698;4.886;2023-07-20T12:06:11;874.70;;;802.80;;
1479;SDS011;732;51.698;4.886;2023-07-20T12:08:41;900.37;;;824.30;;
1479;SDS011;732;51.698;4.886;2023-07-20T12:11:10;649.63;;;603.40;;
1479;SDS011;732;51.698;4.886;2023-07-20T12:13:40;923.00;;;840.17;;
1479;SDS011;732;51.698;4.886;2023-07-20T12:16:12;810.40;;;742.40;;
1479;SDS011;732;51.698;4.886;2023-07-20T12:18:43;896.53;;;814.87;;
1479;SDS011;732;51.698;4.886;2023-07-20T12:21:12;728.37;;;670.63;;
1479;SDS011;732;51.698;4.886;2023-07-20T12:23:42;686.80;;;634.37;;
1479;SDS011;732;51.698;4.886;2023-07-20T12:26:10;541.47;;;502.57;;
1479;SDS011;732;51.698;4.886;2023-07-20T12:28:41;439.47;;;410.43;;
1479;SDS011;732;51.698;4.886;2023-07-20T12:31:09;599.47;;;551.93;;
1479;SDS011;732;51.698;4.886;2023-07-20T12:33:40;379.50;;;354.57;;
1479;SDS011;732;51.698;4.886;2023-07-20T12:36:09;545.03;;;505.77;;
1479;SDS011;732;51.698;4.886;2023-07-20T12:38:37;445.90;;;419.37;;
1479;SDS011;732;51.698;4.886;2023-07-20T12:41:09;202.67;;;191.07;;
1479;SDS011;732;51.698;4.886;2023-07-20T12:43:42;236.53;;;222.37;;
1479;SDS011;732;51.698;4.886;2023-07-20T12:46:12;191.63;;;179.87;;
1479;SDS011;732;51.698;4.886;2023-07-20T12:48:41;102.23;;;95.17;;
1479;SDS011;732;51.698;4.886;2023-07-20T12:51:13;120.37;;;112.47;;
1479;SDS011;732;51.698;4.886;2023-07-20T12:53:41;192.00;;;180.53;;
1479;SDS011;732;51.698;4.886;2023-07-20T12:56:12;188.60;;;176.90;;
1479;SDS011;732;51.698;4.886;2023-07-20T12:58:43;37.57;;;34.50;;
1479;SDS011;732;51.698;4.886;2023-07-20T13:01:12;24.47;;;21.93;;
1479;SDS011;732;51.698;4.886;2023-07-20T13:03:42;32.73;;;29.87;;
1479;SDS011;732;51.698;4.886;2023-07-20T13:06:13;19.47;;;16.10;;
1479;SDS011;732;51.698;4.886;2023-07-20T13:08:44;12.40;;;5.50;;
1479;SDS011;732;51.698;4.886;2023-07-20T13:11:13;11.30;;;3.47;;
1479;SDS011;732;51.698;4.886;2023-07-20T13:13:41;10.43;;;4.10;;
1479;SDS011;732;51.698;4.886;2023-07-20T13:16:09;9.93;;;3.37;;
1479;SDS011;732;51.698;4.886;2023-07-20T13:18:40;8.10;;;2.83;;
1479;SDS011;732;51.698;4.886;2023-07-20T13:21:08;8.93;;;2.57;;
1479;SDS011;732;51.698;4.886;2023-07-20T13:23:38;6.83;;;2.00;;
1479;SDS011;732;51.698;4.886;2023-07-20T13:26:10;8.77;;;2.57;;
1479;SDS011;732;51.698;4.886;2023-07-20T13:28:39;7.60;;;3.03;;
1479;SDS011;732;51.698;4.886;2023-07-20T13:31:08;6.70;;;2.00;;
1479;SDS011;732;51.698;4.886;2023-07-20T13:33:42;7.53;;;2.50;;
1479;SDS011;732;51.698;4.886;2023-07-20T13:36:21;6.83;;;2.60;;
1479;SDS011;732;51.698;4.886;2023-07-20T13:38:50;7.53;;;2.70;;
1479;SDS011;732;51.698;4.886;2023-07-20T13:41:20;8.30;;;2.77;;
1479;SDS011;732;51.698;4.886;2023-07-20T13:43:50;5.87;;;1.97;;
1479;SDS011;732;51.698;4.886;2023-07-20T13:46:19;7.20;;;2.10;;
1479;SDS011;732;51.698;4.886;2023-07-20T13:49:08;6.00;;;2.03;;
1479;SDS011;732;51.698;4.886;2023-07-20T13:51:48;7.03;;;2.80;;
1479;SDS011;732;51.698;4.886;2023-07-20T13:54:36;6.20;;;2.07;;
1479;SDS011;732;51.698;4.886;2023-07-20T13:57:14;6.60;;;2.93;;
1479;SDS011;732;51.698;4.886;2023-07-20T13:59:43;7.00;;;2.40;;
1479;SDS011;732;51.698;4.886;2023-07-20T14:02:13;8.87;;;2.10;;
1479;SDS011;732;51.698;4.886;2023-07-20T14:04:46;7.30;;;2.10;;
1479;SDS011;732;51.698;4.886;2023-07-20T14:07:35;7.70;;;2.63;;
1479;SDS011;732;51.698;4.886;2023-07-20T14:10:04;9.40;;;2.73;;
1479;SDS011;732;51.698;4.886;2023-07-20T14:12:36;7.30;;;2.20;;
1479;SDS011;732;51.698;4.886;2023-07-20T14:15:05;6.47;;;2.13;;
1479;SDS011;732;51.698;4.886;2023-07-20T14:17:34;7.00;;;2.67;;
1479;SDS011;732;51.698;4.886;2023-07-20T14:20:06;6.40;;;2.27;;
1479;SDS011;732;51.698;4.886;2023-07-20T14:22:39;6.70;;;2.40;;
1479;SDS011;732;51.698;4.886;2023-07-20T14:25:08;6.97;;;2.60;;
1479;SDS011;732;51.698;4.886;2023-07-20T14:27:36;7.23;;;2.27;;
1479;SDS011;732;51.698;4.886;2023-07-20T14:30:06;6.77;;;2.63;;
1479;SDS011;732;51.698;4.886;2023-07-20T14:32:35;7.90;;;2.23;;
1479;SDS011;732;51.698;4.886;2023-07-20T14:35:07;6.20;;;2.57;;
1479;SDS011;732;51.698;4.886;2023-07-20T14:37:36;5.47;;;2.20;;
1479;SDS011;732;51.698;4.886;2023-07-20T14:40:05;6.83;;;2.10;;
1479;SDS011;732;51.698;4.886;2023-07-20T14:42:36;5.40;;;2.20;;
1479;SDS011;732;51.698;4.886;2023-07-20T14:45:05;5.47;;;1.83;;
1479;SDS011;732;51.698;4.886;2023-07-20T14:47:34;5.47;;;1.70;;
1479;SDS011;732;51.698;4.886;2023-07-20T14:50:04;8.73;;;2.30;;
1479;SDS011;732;51.698;4.886;2023-07-20T14:52:35;5.40;;;2.00;;
1479;SDS011;732;51.698;4.886;2023-07-20T14:55:14;7.37;;;1.80;;
1479;SDS011;732;51.698;4.886;2023-07-20T14:57:45;7.03;;;2.00;;
1479;SDS011;732;51.698;4.886;2023-07-20T15:00:15;7.33;;;2.20;;
1479;SDS011;732;51.698;4.886;2023-07-20T15:02:44;6.30;;;2.37;;
1479;SDS011;732;51.698;4.886;2023-07-20T15:05:21;7.00;;;2.30;;
1479;SDS011;732;51.698;4.886;2023-07-20T15:07:50;6.90;;;2.20;;
1479;SDS011;732;51.698;4.886;2023-07-20T15:10:18;7.10;;;2.07;;
1479;SDS011;732;51.698;4.886;2023-07-20T15:12:47;7.93;;;2.10;;
1479;SDS011;732;51.698;4.886;2023-07-20T15:15:15;6.70;;;2.00;;
1479;SDS011;732;51.698;4.886;2023-07-20T15:17:44;6.77;;;2.07;;
1479;SDS011;732;51.698;4.886;2023-07-20T15:20:13;9.77;;;2.10;;
1479;SDS011;732;51.698;4.886;2023-07-20T15:22:46;9.23;;;2.30;;
1479;SDS011;732;51.698;4.886;2023-07-20T15:25:15;10.33;;;1.83;;
1479;SDS011;732;51.698;4.886;2023-07-20T15:27:44;8.33;;;2.00;;
1479;SDS011;732;51.698;4.886;2023-07-20T15:30:16;7.03;;;1.90;;